Time;durP1;ratioP1;P1;durP2;ratioP2;P2;SDS_P1;SDS_P2;PMS_P1;PMS_P2;Temp;Humidity;BMP_temperature;BMP_pressure;BME280_temperature;BME280_humidity;BME280_pressure;Samples;Min_cycle;Max_cycle;Signal;HPM_P1;HPM_P2
2022/03/31 00:00:43;;;;;;;2.77;2.57;;;4.60;99.90;;;;;;4936751;28;20483;-71
2022/03/31 00:03:32;;;;;;;3.03;2.73;;;4.50;99.90;;;;;;4937419;28;20513;-70
2022/03/31 00:06:20;;;;;;;3.40;3.10;;;4.60;99.90;;;;;;4941909;29;20659;-71
2022/03/31 00:09:08;;;;;;;3.20;2.90;;;4.60;99.90;;;;;;4930320;28;20488;-70
2022/03/31 00:11:58;;;;;;;3.60;3.30;;;4.60;99.90;;;;;;4938005;28;20565;-70
2022/03/31 00:14:46;;;;;;;3.00;2.80;;;4.70;99.90;;;;;;4939867;29;20513;-70
2022/03/31 00:17:36;;;;;;;3.80;3.50;;;4.70;99.90;;;;;;4940539;28;20546;-70
2022/03/31 00:20:25;;;;;;;3.43;3.10;;;4.60;99.90;;;;;;4933586;29;20616;-71
2022/03/31 00:23:14;;;;;;;4.50;3.23;;;4.50;99.90;;;;;;4929240;28;20975;-70
2022/03/31 00:26:02;;;;;;;4.50;4.10;;;4.50;99.90;;;;;;4943039;28;20702;-70
2022/03/31 00:28:50;;;;;;;4.23;3.77;;;4.50;99.90;;;;;;4942952;29;20593;-70
2022/03/31 00:31:39;;;;;;;4.17;3.73;;;4.50;99.90;;;;;;4934790;28;20483;-71
2022/03/31 00:34:30;;;;;;;4.93;3.50;;;4.50;99.90;;;;;;4932147;29;20716;-70
2022/03/31 00:37:19;;;;;;;3.63;3.23;;;4.50;99.90;;;;;;4944345;28;20812;-70
2022/03/31 00:40:09;;;;;;;3.97;3.63;;;4.40;99.90;;;;;;4942788;29;20593;-71
2022/03/31 00:42:59;;;;;;;3.50;3.20;;;4.40;99.90;;;;;;4938522;29;20525;-72
2022/03/31 00:45:53;;;;;;;4.47;4.07;;;4.40;99.90;;;;;;4940990;28;20572;-70
2022/03/31 00:48:41;;;;;;;4.93;4.40;;;4.30;99.90;;;;;;4932863;29;20957;-70
2022/03/31 00:51:31;;;;;;;6.17;5.30;;;4.30;99.90;;;;;;4939163;29;20490;-71
2022/03/31 00:54:22;;;;;;;4.17;3.73;;;4.30;99.90;;;;;;4932954;28;20978;-71
2022/03/31 00:57:12;;;;;;;4.23;3.83;;;4.20;99.90;;;;;;4941162;28;20813;-70
2022/03/31 01:00:00;;;;;;;4.60;4.17;;;4.30;99.90;;;;;;4931980;29;21335;-70
2022/03/31 01:02:48;;;;;;;6.03;4.10;;;4.20;99.90;;;;;;4932447;28;20592;-70
2022/03/31 01:05:39;;;;;;;5.90;4.70;;;4.20;99.90;;;;;;4934045;28;20463;-70
2022/03/31 01:08:28;;;;;;;4.60;4.13;;;4.10;99.90;;;;;;4935576;28;21033;-70
2022/03/31 01:11:17;;;;;;;4.87;4.40;;;4.00;99.90;;;;;;4934572;28;20479;-70
2022/03/31 01:14:06;;;;;;;4.83;4.43;;;4.00;99.90;;;;;;4934731;28;20902;-70
2022/03/31 01:16:56;;;;;;;5.80;5.10;;;3.90;99.90;;;;;;4935403;29;20466;-70
2022/03/31 01:19:44;;;;;;;5.17;4.67;;;3.90;99.90;;;;;;4934268;29;21213;-70
2022/03/31 01:22:33;;;;;;;4.97;4.50;;;3.90;99.90;;;;;;4940084;28;20479;-71
2022/03/31 01:25:22;;;;;;;7.50;5.00;;;3.90;99.90;;;;;;4934002;28;21089;-71
2022/03/31 01:28:11;;;;;;;5.73;5.13;;;3.90;99.90;;;;;;4936461;29;20918;-70
2022/03/31 01:31:00;;;;;;;5.60;5.10;;;3.90;99.90;;;;;;4938622;28;20502;-72
2022/03/31 01:33:49;;;;;;;5.33;4.83;;;3.90;99.90;;;;;;4936007;28;20963;-70
2022/03/31 01:36:37;;;;;;;5.40;4.90;;;3.90;99.90;;;;;;4932789;28;20463;-71
2022/03/31 01:39:25;;;;;;;5.67;5.07;;;3.90;99.90;;;;;;4933480;29;20470;-70
2022/03/31 01:42:15;;;;;;;5.23;4.73;;;3.80;99.90;;;;;;4934474;28;20447;-70
2022/03/31 01:45:05;;;;;;;5.63;5.10;;;3.80;99.90;;;;;;4936626;28;21166;-70
2022/03/31 01:47:54;;;;;;;5.87;5.37;;;3.70;99.90;;;;;;4934002;29;20601;-71
2022/03/31 01:50:42;;;;;;;5.23;4.73;;;3.70;99.90;;;;;;4934338;29;20498;-70
2022/03/31 01:53:36;;;;;;;5.07;4.53;;;3.70;99.90;;;;;;4935890;28;20936;-71
2022/03/31 01:56:25;;;;;;;6.43;5.83;;;3.70;99.90;;;;;;4935245;29;20602;-70
2022/03/31 01:59:14;;;;;;;6.30;5.70;;;3.60;99.90;;;;;;4939893;29;20543;-72
2022/03/31 02:02:03;;;;;;;5.93;5.00;;;3.60;99.90;;;;;;4931785;29;20588;-71
2022/03/31 02:04:57;;;;;;;5.83;5.33;;;3.70;99.90;;;;;;4932129;28;20459;-70
2022/03/31 02:07:45;;;;;;;5.37;4.87;;;3.60;99.90;;;;;;4937811;29;20999;-72
2022/03/31 02:10:33;;;;;;;5.70;5.20;;;3.60;99.90;;;;;;4932314;29;20475;-70
2022/03/31 02:13:21;;;;;;;6.37;5.30;;;3.50;99.90;;;;;;4933108;28;20888;-71
2022/03/31 02:16:11;;;;;;;6.37;5.77;;;3.50;99.90;;;;;;4932583;29;20454;-71
2022/03/31 02:18:59;;;;;;;5.80;5.30;;;3.50;99.90;;;;;;4934142;28;20454;-72
2022/03/31 02:21:47;;;;;;;6.03;5.47;;;3.40;99.90;;;;;;4937922;28;20526;-71
2022/03/31 02:24:36;;;;;;;6.20;5.60;;;3.40;99.90;;;;;;4932440;29;20484;-71
2022/03/31 02:27:24;;;;;;;6.13;5.60;;;3.40;99.90;;;;;;4936555;28;20487;-72
2022/03/31 02:30:12;;;;;;;6.17;5.57;;;3.40;99.90;;;;;;4929911;29;20537;-71
2022/03/31 02:33:03;;;;;;;6.50;5.90;;;3.30;99.90;;;;;;4933653;28;20463;-70
2022/03/31 02:35:51;;;;;;;6.70;6.10;;;3.30;99.90;;;;;;4935301;29;20460;-70
2022/03/31 02:38:39;;;;;;;7.17;6.50;;;3.40;99.90;;;;;;4936394;28;20989;-71
2022/03/31 02:41:27;;;;;;;6.80;6.20;;;3.40;99.90;;;;;;4934375;28;20557;-71
2022/03/31 02:44:16;;;;;;;6.00;5.50;;;3.30;99.90;;;;;;4934006;28;20996;-70
2022/03/31 02:47:05;;;;;;;7.10;6.40;;;3.30;99.90;;;;;;4942696;29;20924;-70
2022/03/31 02:49:55;;;;;;;7.53;6.73;;;3.20;99.90;;;;;;4939352;29;20978;-71
2022/03/31 02:56:00;;;;;;;7.00;6.30;;;3.20;99.90;;;;;;4921815;28;20479;-72
2022/03/31 02:58:48;;;;;;;7.57;6.80;;;3.20;99.90;;;;;;4936869;29;20551;-70
2022/03/31 03:01:36;;;;;;;7.80;7.00;;;3.20;99.90;;;;;;4934061;28;20501;-70
2022/03/31 03:04:24;;;;;;;7.50;6.80;;;3.20;99.90;;;;;;4938656;29;20463;-72
2022/03/31 03:07:14;;;;;;;7.47;6.63;;;3.20;99.90;;;;;;4936970;28;20474;-71
2022/03/31 03:10:03;;;;;;;7.70;6.80;;;3.10;99.90;;;;;;4934315;28;20982;-71
2022/03/31 03:12:51;;;;;;;7.00;6.30;;;3.10;99.90;;;;;;4936064;29;20483;-70
2022/03/31 03:15:39;;;;;;;7.40;6.70;;;3.10;99.90;;;;;;4937546;28;20462;-71
2022/03/31 03:18:27;;;;;;;7.27;6.57;;;3.20;99.90;;;;;;4940294;29;20455;-73
2022/03/31 03:21:15;;;;;;;7.50;6.80;;;3.10;99.90;;;;;;4942864;28;21019;-72
2022/03/31 03:24:06;;;;;;;7.73;6.90;;;3.10;99.90;;;;;;4937283;29;20459;-72
2022/03/31 03:26:54;;;;;;;7.70;6.90;;;3.10;99.90;;;;;;4937593;28;20541;-70
2022/03/31 03:29:46;;;;;;;7.70;6.90;;;3.00;99.90;;;;;;4934517;29;20669;-72
2022/03/31 03:32:36;;;;;;;7.67;6.87;;;2.90;99.90;;;;;;4940132;28;20498;-72
2022/03/31 03:35:24;;;;;;;8.60;7.80;;;2.90;99.90;;;;;;4939209;28;20561;-70
2022/03/31 03:38:14;;;;;;;8.77;7.87;;;2.90;99.90;;;;;;4939943;29;20521;-71
2022/03/31 03:41:04;;;;;;;9.27;8.27;;;2.90;99.90;;;;;;4936490;29;21126;-72
2022/03/31 03:43:52;;;;;;;9.13;8.23;;;2.80;99.90;;;;;;4944019;28;20495;-72
2022/03/31 03:46:40;;;;;;;8.43;7.63;;;2.80;99.90;;;;;;4937875;28;20490;-72
2022/03/31 03:49:29;;;;;;;8.33;7.63;;;2.80;99.90;;;;;;4936921;29;20677;-73
2022/03/31 03:52:17;;;;;;;8.87;8.03;;;2.80;99.90;;;;;;4935403;28;21050;-72
2022/03/31 03:55:07;;;;;;;8.10;7.40;;;2.80;99.90;;;;;;4937733;28;20459;-72
2022/03/31 03:57:56;;;;;;;8.63;7.73;;;2.80;99.90;;;;;;4945225;29;20509;-71
2022/03/31 04:00:44;;;;;;;9.10;8.20;;;2.70;99.90;;;;;;4932999;28;20510;-73
2022/03/31 04:03:33;;;;;;;9.73;8.40;;;2.60;99.90;;;;;;4943408;28;21011;-72
2022/03/31 04:06:21;;;;;;;9.20;8.40;;;2.50;99.90;;;;;;4938995;29;20470;-71
2022/03/31 04:09:09;;;;;;;8.87;7.77;;;2.50;99.90;;;;;;4940770;29;20490;-72
2022/03/31 04:11:57;;;;;;;7.97;7.27;;;2.50;99.90;;;;;;4938862;28;20590;-71
2022/03/31 04:14:47;;;;;;;8.47;7.67;;;2.50;99.90;;;;;;4943479;28;20530;-72
2022/03/31 04:17:36;;;;;;;9.20;8.07;;;2.40;99.90;;;;;;4933417;29;20447;-73
2022/03/31 04:20:24;;;;;;;7.77;7.07;;;2.40;99.90;;;;;;4937714;28;20487;-72
2022/03/31 04:23:12;;;;;;;8.47;7.67;;;2.50;99.90;;;;;;4935300;28;20474;-72
2022/03/31 04:26:00;;;;;;;8.10;7.30;;;2.30;99.90;;;;;;4935989;29;20547;-72
2022/03/31 04:28:48;;;;;;;8.63;7.73;;;2.20;99.90;;;;;;4938030;28;20538;-71
2022/03/31 04:31:40;;;;;;;8.50;7.60;;;2.20;99.90;;;;;;4936026;29;21108;-73
2022/03/31 04:34:29;;;;;;;9.00;8.07;;;2.30;99.90;;;;;;4944725;29;21159;-73
2022/03/31 04:37:17;;;;;;;8.10;7.30;;;2.20;99.90;;;;;;4937289;29;20633;-72
2022/03/31 04:40:07;;;;;;;8.20;7.40;;;2.30;99.90;;;;;;4939631;28;20550;-70
2022/03/31 04:42:55;;;;;;;8.10;7.40;;;2.20;99.90;;;;;;4931245;28;20459;-71
2022/03/31 04:45:43;;;;;;;8.27;7.47;;;2.20;99.90;;;;;;4934108;28;20541;-73
2022/03/31 04:48:35;;;;;;;7.70;7.00;;;2.10;99.90;;;;;;4938742;28;20636;-74
2022/03/31 04:51:23;;;;;;;9.30;7.30;;;2.20;99.90;;;;;;4968235;23;20629;-70
2022/03/31 04:54:11;;;;;;;8.30;7.50;;;2.10;99.90;;;;;;4969657;28;20548;-69
2022/03/31 04:56:59;;;;;;;8.37;7.50;;;2.00;99.90;;;;;;4967040;28;20483;-69
2022/03/31 04:59:48;;;;;;;8.57;7.77;;;2.00;99.90;;;;;;4964122;28;20469;-70
2022/03/31 05:02:36;;;;;;;7.57;6.87;;;2.00;99.90;;;;;;4938546;28;21145;-70
2022/03/31 05:05:26;;;;;;;8.30;7.40;;;2.10;99.90;;;;;;4940285;28;20949;-70
2022/03/31 05:08:14;;;;;;;8.30;7.13;;;2.00;99.90;;;;;;4942536;28;20458;-69
2022/03/31 05:11:03;;;;;;;8.03;7.33;;;2.10;99.90;;;;;;4944357;28;20529;-69
2022/03/31 05:13:51;;;;;;;8.27;7.10;;;2.00;99.90;;;;;;4950366;28;20600;-69
2022/03/31 05:16:39;;;;;;;7.73;6.97;;;2.10;99.90;;;;;;4953985;28;20465;-73
2022/03/31 05:19:28;;;;;;;11.27;7.27;;;2.10;99.90;;;;;;4951374;28;20891;-71
2022/03/31 05:22:17;;;;;;;8.27;7.47;;;2.10;99.90;;;;;;4945129;28;20523;-69
2022/03/31 05:25:08;;;;;;;7.40;6.70;;;2.00;99.90;;;;;;4951544;28;20454;-71
2022/03/31 05:27:58;;;;;;;7.80;7.10;;;2.00;99.90;;;;;;4943374;28;21969;-69
2022/03/31 05:30:47;;;;;;;7.70;7.10;;;2.00;99.90;;;;;;4940371;28;20739;-70
2022/03/31 05:33:36;;;;;;;8.37;7.57;;;2.00;99.90;;;;;;4942106;28;20473;-71
2022/03/31 05:36:24;;;;;;;7.47;6.77;;;1.90;99.90;;;;;;4937290;28;20493;-70
2022/03/31 05:39:13;;;;;;;8.37;7.57;;;1.90;99.90;;;;;;4947010;28;20459;-69
2022/03/31 05:42:02;;;;;;;7.37;6.67;;;1.90;99.90;;;;;;4942332;28;20463;-69
2022/03/31 05:44:50;;;;;;;8.30;7.40;;;1.90;99.90;;;;;;4949093;28;20470;-69
2022/03/31 05:47:39;;;;;;;8.17;7.40;;;1.80;99.90;;;;;;4951771;28;20447;-69
2022/03/31 05:50:27;;;;;;;7.53;6.70;;;1.70;99.90;;;;;;4943616;28;20494;-69
2022/03/31 05:53:15;;;;;;;7.70;6.90;;;1.70;99.90;;;;;;4946975;28;20935;-70
2022/03/31 05:56:05;;;;;;;7.80;7.10;;;1.70;99.90;;;;;;4938965;28;20457;-70
2022/03/31 05:58:53;;;;;;;8.03;7.27;;;1.70;99.90;;;;;;4942000;28;20451;-70
2022/03/31 06:01:41;;;;;;;7.00;6.40;;;1.70;99.90;;;;;;4950249;28;21033;-70
2022/03/31 06:04:30;;;;;;;7.13;6.43;;;1.80;99.90;;;;;;4940524;28;20627;-69
2022/03/31 06:07:18;;;;;;;7.20;6.37;;;1.80;99.90;;;;;;4938285;28;20494;-69
2022/03/31 06:10:07;;;;;;;6.53;6.03;;;1.70;99.90;;;;;;4945934;28;20478;-69
2022/03/31 06:12:57;;;;;;;6.77;6.17;;;1.60;99.90;;;;;;4946215;28;20458;-70
2022/03/31 06:15:45;;;;;;;6.50;5.90;;;1.60;99.90;;;;;;4942873;28;20455;-70
2022/03/31 06:18:33;;;;;;;6.43;5.83;;;1.60;99.90;;;;;;4943962;28;20454;-71
2022/03/31 06:21:22;;;;;;;6.63;6.03;;;1.60;99.90;;;;;;4943287;28;20827;-70
2022/03/31 06:24:11;;;;;;;6.27;5.70;;;1.60;99.90;;;;;;4950309;28;20540;-71
2022/03/31 06:27:00;;;;;;;7.20;6.57;;;1.60;99.90;;;;;;4943591;28;20473;-70
2022/03/31 06:29:51;;;;;;;6.93;6.33;;;1.60;99.90;;;;;;4948857;28;20483;-70
2022/03/31 06:32:39;;;;;;;7.10;6.40;;;1.50;99.90;;;;;;4944573;28;21114;-70
2022/03/31 06:35:28;;;;;;;6.53;5.93;;;1.50;99.90;;;;;;4945744;28;20543;-67
2022/03/31 06:38:16;;;;;;;7.60;6.70;;;1.50;99.90;;;;;;4944863;28;20458;-68
2022/03/31 06:41:08;;;;;;;7.40;6.50;;;1.50;99.90;;;;;;4949731;28;20466;-67
2022/03/31 06:43:56;;;;;;;6.73;6.13;;;1.60;99.90;;;;;;4954484;28;20469;-67
2022/03/31 06:46:46;;;;;;;6.23;5.60;;;1.60;99.90;;;;;;4951217;28;22364;-68
2022/03/31 06:49:35;;;;;;;5.80;5.30;;;1.60;99.90;;;;;;4953288;28;20828;-68
2022/03/31 06:52:23;;;;;;;5.37;4.87;;;1.60;99.90;;;;;;4947497;28;20471;-68
2022/03/31 06:55:11;;;;;;;6.33;5.73;;;1.50;99.90;;;;;;4952532;28;20489;-68
2022/03/31 06:57:59;;;;;;;5.80;5.20;;;1.50;99.90;;;;;;4928209;28;20477;-68
2022/03/31 07:00:47;;;;;;;6.40;5.80;;;1.50;99.90;;;;;;4947855;28;20504;-68
2022/03/31 07:03:38;;;;;;;6.50;5.40;;;1.50;99.90;;;;;;4942846;28;20462;-67
2022/03/31 07:06:26;;;;;;;6.53;5.20;;;1.60;99.90;;;;;;4953068;28;20458;-68
2022/03/31 07:09:14;;;;;;;6.53;5.70;;;1.50;99.90;;;;;;4951326;28;20502;-68
2022/03/31 07:12:02;;;;;;;5.60;5.10;;;1.40;99.90;;;;;;4940776;28;20495;-68
2022/03/31 09:27:29;;;;;;;5.33;4.83;;;2.70;99.90;;;;;;4974063;28;20486;-92
2022/03/31 09:30:19;;;;;;;6.03;5.43;;;2.80;99.90;;;;;;4957902;28;20475;-93
2022/03/31 09:39:58;;;;;;;4.80;4.40;;;3.00;99.90;;;;;;4960234;28;20474;-94
2022/03/31 09:43:17;;;;;;;;;;;;;;;;;;;;;
2022/03/31 09:54:56;;;;;;;;;;;;;;;;;;;;;
2022/03/31 10:12:56;;;;;;;6.07;4.50;;;3.80;99.90;;;;;;4898810;29;21253;-92
2022/03/31 10:16:30;;;;;;;5.40;4.60;;;3.90;99.90;;;;;;4846822;29;20563;-92
2022/03/31 10:19:57;;;;;;;5.17;4.50;;;4.00;99.90;;;;;;4842633;29;20730;-92
2022/03/31 10:27:02;;;;;;;;;;;;;;;;;;;;;
2022/03/31 10:30:35;;;;;;;5.90;5.17;;;4.30;99.90;;;;;;4829196;29;20488;-92
2022/03/31 10:34:03;;;;;;;6.23;5.63;;;4.40;99.90;;;;;;4812450;29;20477;-91
2022/03/31 10:45:42;;;;;;;5.20;4.40;;;4.80;99.90;;;;;;4961003;28;20534;-94
2022/03/31 10:49:12;;;;;;;4.97;4.50;;;4.90;99.90;;;;;;4956378;28;20577;-94
2022/03/31 10:55:58;;;;;;;;;;;;;;;;;;;;;
2022/03/31 10:59:15;;;;;;;4.07;3.67;;;5.30;99.90;;;;;;4959785;28;20488;-95
2022/03/31 17:21:43;;;;;;;1.70;1.40;;;5.50;91.40;;;;;;4910084;29;20477;-93
2022/03/31 17:24:32;;;;;;;1.17;1.03;;;5.50;92.00;;;;;;4911165;28;20705;-94
2022/03/31 17:27:47;;;;;;;3.53;1.10;;;5.40;90.40;;;;;;4903836;29;20824;-91
2022/03/31 17:30:45;;;;;;;1.30;1.03;;;5.30;88.10;;;;;;4888433;29;20549;-92
2022/03/31 17:33:35;;;;;;;3.23;1.10;;;5.10;87.70;;;;;;4890931;29;21129;-92
2022/03/31 17:36:28;;;;;;;1.63;1.30;;;5.20;90.30;;;;;;4899716;29;20458;-93
2022/03/31 17:39:20;;;;;;;1.47;1.37;;;5.10;92.00;;;;;;4898037;29;20469;-93
2022/03/31 17:42:21;;;;;;;0.90;0.90;;;5.10;91.80;;;;;;4894550;29;20584;-91
2022/03/31 17:45:12;;;;;;;1.50;1.00;;;5.00;91.60;;;;;;4897510;29;20533;-91
2022/03/31 17:48:01;;;;;;;1.30;1.20;;;5.00;92.50;;;;;;4898582;29;20639;-93
2022/03/31 17:50:52;;;;;;;1.03;0.97;;;5.10;94.20;;;;;;4890412;29;20877;-94
2022/03/31 17:53:43;;;;;;;1.50;1.40;;;5.10;95.10;;;;;;4895814;29;21103;-91
2022/03/31 17:56:36;;;;;;;1.40;1.30;;;5.00;94.50;;;;;;4911168;29;20477;-92
2022/03/31 17:59:25;;;;;;;1.77;1.10;;;5.00;98.70;;;;;;4913179;29;20578;-93
2022/03/31 18:02:21;;;;;;;0.93;0.93;;;5.00;94.40;;;;;;4911955;29;20451;-92
2022/03/31 18:05:11;;;;;;;0.97;0.97;;;5.00;94.30;;;;;;4916083;29;20446;-92
2022/03/31 18:07:59;;;;;;;1.27;1.20;;;5.00;95.20;;;;;;4902594;29;20532;-93
2022/03/31 18:10:50;;;;;;;1.47;1.30;;;4.90;96.80;;;;;;4906357;29;20485;-93
2022/03/31 18:13:41;;;;;;;1.30;1.20;;;4.80;99.90;;;;;;4900793;29;20453;-92
2022/03/31 18:16:30;;;;;;;2.47;1.57;;;4.90;99.90;;;;;;4901593;29;20514;-91
2022/03/31 18:19:19;;;;;;;1.73;1.63;;;4.80;96.70;;;;;;4896465;29;20506;-91
2022/03/31 18:22:09;;;;;;;2.40;1.27;;;4.80;98.80;;;;;;4906415;29;20961;-93
2022/03/31 18:24:59;;;;;;;2.87;1.37;;;4.70;95.20;;;;;;4902165;29;20462;-91
2022/03/31 18:27:50;;;;;;;1.80;1.23;;;4.60;95.50;;;;;;4906435;29;20552;-93
2022/03/31 18:33:57;;;;;;;1.77;1.23;;;4.60;95.30;;;;;;4899215;29;20462;-92
2022/03/31 18:40:11;;;;;;;2.50;1.20;;;4.60;97.50;;;;;;4916616;29;20469;-92
2022/03/31 18:43:03;;;;;;;1.20;1.10;;;4.60;97.20;;;;;;4906984;29;20468;-92
2022/03/31 18:46:05;;;;;;;1.30;1.03;;;4.60;96.80;;;;;;4903161;29;20458;-92
2022/03/31 18:52:58;;;;;;;1.63;1.07;;;4.50;96.50;;;;;;4899790;29;20482;-93
2022/03/31 18:55:51;;;;;;;1.40;1.30;;;4.40;96.10;;;;;;4899992;29;20818;-93
2022/03/31 18:58:46;;;;;;;1.37;1.20;;;4.40;99.40;;;;;;4902647;29;20454;-94
2022/03/31 19:01:37;;;;;;;1.47;1.13;;;4.40;97.30;;;;;;4907270;29;20449;-93
2022/03/31 19:04:31;;;;;;;1.20;1.10;;;4.40;97.90;;;;;;4905090;29;20456;-92
2022/03/31 19:07:21;;;;;;;1.83;1.73;;;4.30;97.80;;;;;;4907655;29;20449;-93
2022/03/31 19:10:15;;;;;;;1.90;1.70;;;4.30;97.40;;;;;;4900476;29;20569;-91
2022/03/31 19:13:10;;;;;;;4.50;4.00;;;4.30;99.90;;;;;;4904499;29;20512;-93
2022/03/31 19:16:00;;;;;;;2.27;2.07;;;4.30;99.50;;;;;;4895435;29;20450;-94
2022/03/31 19:18:56;;;;;;;2.07;1.83;;;4.20;98.90;;;;;;4901091;29;20453;-93
2022/03/31 19:21:44;;;;;;;1.57;1.47;;;4.20;99.00;;;;;;4902534;29;20457;-94
2022/03/31 19:24:34;;;;;;;3.90;1.70;;;4.20;99.90;;;;;;4897574;29;20454;-93
2022/03/31 19:27:24;;;;;;;2.73;1.80;;;4.20;99.90;;;;;;4902241;29;20453;-92
2022/03/31 19:30:16;;;;;;;1.70;1.57;;;4.20;99.90;;;;;;4898088;29;20486;-90
2022/03/31 19:33:07;;;;;;;1.87;1.67;;;4.30;99.90;;;;;;4909263;29;20474;-92
2022/03/31 19:35:57;;;;;;;1.90;1.80;;;4.20;99.90;;;;;;4906794;29;20472;-90
2022/03/31 19:38:46;;;;;;;1.57;1.47;;;4.20;99.90;;;;;;4901417;29;20470;-90
2022/03/31 19:41:37;;;;;;;3.03;1.50;;;4.20;99.90;;;;;;4897648;29;20499;-90
2022/03/31 19:44:26;;;;;;;1.97;1.73;;;4.20;99.90;;;;;;4908368;29;20469;-89
2022/03/31 19:47:14;;;;;;;1.70;1.60;;;4.10;99.90;;;;;;4901824;29;20518;-90
2022/03/31 19:50:05;;;;;;;2.10;1.43;;;4.10;99.90;;;;;;4904086;29;20490;-90
2022/03/31 19:52:57;;;;;;;1.33;1.20;;;4.10;99.90;;;;;;4903474;29;20497;-92
2022/03/31 19:56:01;;;;;;;3.30;1.50;;;4.00;99.90;;;;;;4905954;29;20493;-93
2022/03/31 19:58:50;;;;;;;1.97;1.30;;;4.00;99.90;;;;;;4903592;29;20592;-91
2022/03/31 20:01:38;;;;;;;1.83;1.50;;;4.00;99.90;;;;;;4901116;29;20465;-91
2022/03/31 20:04:27;;;;;;;1.57;1.30;;;4.00;99.90;;;;;;4896851;29;20459;-90
2022/03/31 20:07:16;;;;;;;2.87;1.20;;;3.90;99.90;;;;;;4905034;29;20456;-92
2022/03/31 20:10:08;;;;;;;1.20;1.10;;;3.90;99.90;;;;;;4902961;29;20485;-92
2022/03/31 20:12:58;;;;;;;1.10;1.00;;;3.90;99.90;;;;;;4900930;29;20980;-92
2022/03/31 20:15:47;;;;;;;1.30;1.20;;;3.90;99.90;;;;;;4896856;29;20989;-91
2022/03/31 20:18:36;;;;;;;1.43;1.30;;;3.90;99.90;;;;;;4900918;29;20815;-91
2022/03/31 20:21:25;;;;;;;1.37;1.27;;;3.90;99.90;;;;;;4904127;29;20513;-92
2022/03/31 20:24:14;;;;;;;2.87;1.30;;;3.90;99.90;;;;;;4896038;29;20510;-91
2022/03/31 20:27:06;;;;;;;1.23;1.13;;;4.00;99.90;;;;;;4900402;29;20466;-91
2022/03/31 20:29:55;;;;;;;1.43;1.33;;;4.00;99.90;;;;;;4904128;29;20607;-91
2022/03/31 20:32:45;;;;;;;1.27;1.20;;;4.00;99.90;;;;;;4903636;29;20477;-90
2022/03/31 20:35:33;;;;;;;2.83;1.43;;;3.90;99.90;;;;;;4901720;29;20469;-90
2022/03/31 20:38:22;;;;;;;1.30;1.20;;;3.90;99.90;;;;;;4897659;29;20509;-91
2022/03/31 20:41:11;;;;;;;1.83;1.30;;;3.90;99.90;;;;;;4903388;29;20474;-92
2022/03/31 20:44:02;;;;;;;1.70;1.37;;;3.90;99.90;;;;;;4900937;29;20557;-91
2022/03/31 20:46:50;;;;;;;1.40;1.30;;;3.90;99.90;;;;;;4896643;29;20466;-92
2022/03/31 20:49:39;;;;;;;1.30;1.10;;;3.80;99.90;;;;;;4900248;29;20533;-90
2022/03/31 20:52:28;;;;;;;1.30;1.20;;;3.80;99.90;;;;;;4902946;29;20586;-92
2022/03/31 20:55:16;;;;;;;2.90;1.43;;;3.80;99.90;;;;;;4902689;29;20462;-91
2022/03/31 20:58:06;;;;;;;1.50;1.40;;;3.80;99.90;;;;;;4901746;29;20465;-91
2022/03/31 21:00:56;;;;;;;1.33;1.20;;;3.80;99.90;;;;;;4898545;29;20557;-91
2022/03/31 21:03:45;;;;;;;2.47;1.57;;;3.80;99.90;;;;;;4900476;29;20484;-92
2022/03/31 21:06:34;;;;;;;1.07;1.00;;;3.70;99.90;;;;;;4898452;29;20545;-92
2022/03/31 21:09:22;;;;;;;2.17;1.13;;;3.80;99.90;;;;;;4899030;29;20902;-91
2022/03/31 21:12:11;;;;;;;1.20;1.10;;;3.70;99.90;;;;;;4897541;29;20458;-92
2022/03/31 21:15:00;;;;;;;1.43;1.17;;;3.70;99.90;;;;;;4906840;29;20522;-92
2022/03/31 21:17:55;;;;;;;2.10;1.27;;;3.70;99.90;;;;;;4900965;29;20968;-91
2022/03/31 21:20:46;;;;;;;1.60;1.50;;;3.60;99.90;;;;;;4894529;29;20482;-92
2022/03/31 21:23:35;;;;;;;2.70;1.50;;;3.60;99.90;;;;;;4904686;29;20458;-91
2022/03/31 21:26:25;;;;;;;2.00;1.20;;;3.60;99.90;;;;;;4901002;29;20565;-92
2022/03/31 21:29:13;;;;;;;1.50;1.40;;;3.60;99.90;;;;;;4899143;29;20992;-92
2022/03/31 21:32:01;;;;;;;2.83;1.33;;;3.70;99.90;;;;;;4899722;29;20532;-91
2022/03/31 21:34:52;;;;;;;1.83;1.10;;;3.60;99.90;;;;;;4901665;29;20457;-92
2022/03/31 21:37:41;;;;;;;1.33;1.23;;;3.60;99.90;;;;;;4897247;29;20464;-92
2022/03/31 21:40:30;;;;;;;1.80;1.30;;;3.60;99.90;;;;;;4895554;29;20478;-92
2022/03/31 21:43:20;;;;;;;2.30;1.60;;;3.60;99.90;;;;;;4899641;29;20515;-90
2022/03/31 21:46:08;;;;;;;1.60;1.43;;;3.50;99.90;;;;;;4895338;29;20545;-90
2022/03/31 21:48:57;;;;;;;1.80;1.47;;;3.50;99.90;;;;;;4896369;29;20466;-91
2022/03/31 21:51:47;;;;;;;1.37;1.27;;;3.50;99.90;;;;;;4897839;29;20985;-90
2022/03/31 21:54:36;;;;;;;1.30;1.20;;;3.50;99.90;;;;;;4894419;29;20559;-90
2022/03/31 21:57:25;;;;;;;1.90;1.40;;;3.50;99.90;;;;;;4895043;29;20517;-92
2022/03/31 22:00:45;;;;;;;2.67;1.57;;;3.50;99.90;;;;;;4902990;29;20505;-91
2022/03/31 22:03:34;;;;;;;1.73;1.37;;;3.50;99.90;;;;;;4903907;29;20546;-90
2022/03/31 22:06:23;;;;;;;2.73;1.93;;;3.40;99.90;;;;;;4907174;29;20454;-90
2022/03/31 22:12:19;;;;;;;2.07;1.57;;;3.50;99.90;;;;;;4903658;29;20458;-90
2022/03/31 22:15:08;;;;;;;1.50;1.40;;;3.40;99.90;;;;;;4899888;29;20457;-90
2022/03/31 22:17:57;;;;;;;1.90;1.50;;;3.40;99.90;;;;;;4905453;29;20450;-90
2022/03/31 22:20:45;;;;;;;2.10;1.20;;;3.40;99.90;;;;;;4899136;29;20568;-90
2022/03/31 22:23:34;;;;;;;2.20;1.50;;;3.30;99.90;;;;;;4896497;29;20493;-91
2022/03/31 22:26:24;;;;;;;1.67;1.33;;;3.30;99.90;;;;;;4915877;28;20441;-91
2022/03/31 22:29:14;;;;;;;3.47;1.43;;;3.30;99.90;;;;;;4917850;29;20478;-90
2022/03/31 22:32:02;;;;;;;1.60;1.40;;;3.30;99.90;;;;;;4910917;29;20453;-90
2022/03/31 22:34:51;;;;;;;1.33;1.10;;;3.30;99.90;;;;;;4908401;29;20491;-91
2022/03/31 22:37:39;;;;;;;1.40;1.30;;;3.30;99.90;;;;;;4914758;29;20461;-91
2022/03/31 22:40:28;;;;;;;1.30;1.20;;;3.40;99.90;;;;;;4906615;29;20474;-91
2022/03/31 22:43:18;;;;;;;2.63;1.23;;;3.40;99.90;;;;;;4900770;29;20487;-90
2022/03/31 22:46:10;;;;;;;1.20;1.10;;;3.40;99.90;;;;;;4902132;29;20454;-89
2022/03/31 22:49:00;;;;;;;1.20;1.10;;;3.40;99.90;;;;;;4901478;29;20462;-90
2022/03/31 22:51:49;;;;;;;2.03;1.50;;;3.50;99.90;;;;;;4907333;29;20467;-90
2022/03/31 22:54:38;;;;;;;1.93;1.40;;;3.50;99.90;;;;;;4918849;29;20501;-90
2022/03/31 22:57:27;;;;;;;1.33;1.23;;;3.50;99.90;;;;;;4911082;29;20499;-90
2022/03/31 23:00:18;;;;;;;1.50;1.30;;;3.40;99.90;;;;;;4917309;29;20482;-90
2022/03/31 23:03:06;;;;;;;1.30;1.20;;;3.40;99.90;;;;;;4906033;29;20450;-89
2022/03/31 23:05:55;;;;;;;1.33;1.23;;;3.30;99.90;;;;;;4909141;29;20518;-90
2022/03/31 23:08:45;;;;;;;1.30;1.20;;;3.30;99.90;;;;;;4902145;29;20457;-90
2022/03/31 23:11:34;;;;;;;1.53;1.37;;;3.30;99.90;;;;;;4910941;29;20469;-90
2022/03/31 23:14:22;;;;;;;1.80;1.20;;;3.30;99.90;;;;;;4908756;29;20565;-90
2022/03/31 23:17:12;;;;;;;1.67;1.43;;;3.30;99.90;;;;;;4918872;29;20469;-90
2022/03/31 23:20:00;;;;;;;1.10;1.00;;;3.30;99.90;;;;;;4917649;29;20497;-90
2022/03/31 23:22:49;;;;;;;1.87;1.43;;;3.30;99.90;;;;;;4918196;29;20458;-89
2022/03/31 23:25:38;;;;;;;1.20;1.10;;;3.40;99.90;;;;;;4921722;29;20473;-89
2022/03/31 23:28:27;;;;;;;3.57;1.27;;;3.30;99.90;;;;;;4902631;29;20529;-90
2022/03/31 23:31:15;;;;;;;1.47;1.23;;;3.30;99.90;;;;;;4901023;29;20488;-90
2022/03/31 23:34:05;;;;;;;1.20;1.10;;;3.20;99.90;;;;;;4898834;29;20485;-89
2022/03/31 23:36:54;;;;;;;1.40;1.20;;;3.30;99.90;;;;;;4900255;29;20989;-90
2022/03/31 23:39:43;;;;;;;1.60;1.47;;;3.30;99.90;;;;;;4898301;29;20478;-90
2022/03/31 23:42:31;;;;;;;1.60;1.13;;;3.30;99.90;;;;;;4900908;29;20842;-90
2022/03/31 23:45:20;;;;;;;1.20;1.10;;;3.20;99.90;;;;;;4898109;29;20457;-89
2022/03/31 23:48:09;;;;;;;1.27;1.17;;;3.20;99.90;;;;;;4902484;29;20580;-90
2022/03/31 23:50:59;;;;;;;1.10;1.00;;;3.20;99.90;;;;;;4900073;29;20556;-90
2022/03/31 23:53:48;;;;;;;2.20;1.37;;;3.10;99.90;;;;;;4897555;29;20535;-90
2022/03/31 23:56:36;;;;;;;1.90;1.30;;;3.10;99.90;;;;;;4898283;29;20613;-90
2022/03/31 23:59:25;;;;;;;2.13;1.63;;;3.10;99.90;;;;;;4898191;29;20569;-90
